Time;durP1;ratioP1;P1;durP2;ratioP2;P2;SDS_P1;SDS_P2;PMS_P1;PMS_P2;Temp;Humidity;BMP_temperature;BMP_pressure;BME280_temperature;BME280_humidity;BME280_pressure;Samples;Min_cycle;Max_cycle;Signal;HPM_P1;HPM_P2
2022/11/02 00:00:32;;;;;;;13.10;1.95;;;13.10;99.90;;;;;;5073928;28;20479;-93
2022/11/02 00:02:58;;;;;;;13.70;1.38;;;13.00;99.90;;;;;;5054453;28;20067;-93
2022/11/02 00:05:24;;;;;;;12.93;1.40;;;13.00;99.90;;;;;;5073591;28;20044;-94
2022/11/02 00:07:51;;;;;;;12.20;1.55;;;13.40;99.90;;;;;;5054795;28;20052;-92
2022/11/02 00:10:18;;;;;;;6.95;0.63;;;12.90;99.90;;;;;;5072216;28;20047;-94
2022/11/02 00:12:44;;;;;;;8.25;1.10;;;12.90;99.90;;;;;;5055994;28;20047;-95
2022/11/02 00:15:11;;;;;;;8.70;1.20;;;12.80;99.90;;;;;;5071705;28;20040;-93
2022/11/02 00:17:48;;;;;;;12.68;1.80;;;12.90;99.90;;;;;;5061157;28;20046;-95
2022/11/02 00:20:16;;;;;;;8.80;1.33;;;12.80;99.90;;;;;;5077102;28;20058;-94
2022/11/02 00:22:44;;;;;;;11.77;1.65;;;12.80;99.90;;;;;;5077615;28;20048;-95
2022/11/02 00:25:13;;;;;;;7.40;1.08;;;13.60;99.90;;;;;;5078270;28;20098;-94
2022/11/02 00:27:41;;;;;;;8.95;1.23;;;12.80;99.90;;;;;;5083449;28;20043;-92
2022/11/02 00:30:08;;;;;;;10.93;1.35;;;12.80;99.90;;;;;;5075661;28;20473;-95
2022/11/02 00:32:33;;;;;;;7.82;0.77;;;12.70;99.90;;;;;;5039215;28;20101;-95
2022/11/02 00:34:59;;;;;;;4.50;0.82;;;12.70;99.90;;;;;;5062296;28;20100;-96
2022/11/02 00:37:25;;;;;;;6.10;1.10;;;12.60;99.90;;;;;;5075250;28;20491;-94
2022/11/02 00:39:50;;;;;;;4.88;0.70;;;13.20;99.90;;;;;;5074034;28;20040;-94
2022/11/02 00:42:16;;;;;;;4.55;0.70;;;12.30;99.90;;;;;;5054696;28;20048;-94
2022/11/02 00:44:43;;;;;;;6.10;1.02;;;12.40;99.90;;;;;;5056523;28;20040;-92
2022/11/02 00:47:10;;;;;;;6.88;1.48;;;12.20;99.90;;;;;;5090062;28;20109;-93
2022/11/02 00:49:36;;;;;;;5.28;1.13;;;12.10;99.90;;;;;;5072211;28;20051;-93
2022/11/02 00:52:02;;;;;;;6.07;0.90;;;12.60;99.90;;;;;;5073795;28;20044;-92
2022/11/02 00:54:28;;;;;;;4.63;0.80;;;12.00;99.90;;;;;;5053500;28;20055;-93
2022/11/02 00:56:53;;;;;;;3.83;1.02;;;11.90;99.90;;;;;;5073724;28;20043;-92
2022/11/02 00:59:20;;;;;;;5.20;0.70;;;12.10;99.90;;;;;;5053504;28;20051;-92
2022/11/02 01:01:48;;;;;;;4.97;0.73;;;11.90;99.90;;;;;;5074541;28;20102;-91
2022/11/02 01:04:14;;;;;;;5.50;0.77;;;11.70;99.90;;;;;;5071810;28;20055;-90
2022/11/02 01:06:41;;;;;;;3.95;0.60;;;11.80;99.90;;;;;;5056393;28;20040;-93
2022/11/02 01:09:08;;;;;;;7.53;0.85;;;11.90;99.90;;;;;;5059052;28;20088;-92
2022/11/02 01:11:34;;;;;;;4.85;0.90;;;11.70;99.90;;;;;;5057798;28;20063;-93
2022/11/02 01:14:00;;;;;;;5.55;1.00;;;11.70;99.90;;;;;;5074287;28;20482;-94
2022/11/02 01:16:26;;;;;;;2.58;0.73;;;12.20;99.90;;;;;;5050835;28;20108;-92
2022/11/02 01:18:53;;;;;;;3.83;0.90;;;11.60;99.90;;;;;;5078165;28;20463;-93
2022/11/02 01:21:19;;;;;;;3.42;0.73;;;12.20;99.90;;;;;;5089826;28;20040;-93
2022/11/02 01:23:45;;;;;;;2.95;0.55;;;11.90;99.90;;;;;;5079310;28;20047;-93
2022/11/02 01:26:11;;;;;;;6.47;0.90;;;12.50;99.90;;;;;;5073562;28;20048;-91
2022/11/02 01:28:38;;;;;;;2.63;0.65;;;12.20;99.90;;;;;;5072429;28;20036;-91
2022/11/02 01:31:04;;;;;;;3.13;0.43;;;11.50;99.90;;;;;;5074253;28;20052;-91
2022/11/02 01:33:30;;;;;;;3.22;0.50;;;11.50;99.90;;;;;;5071524;28;20032;-91
2022/11/02 01:35:56;;;;;;;2.60;0.70;;;11.50;99.90;;;;;;5071739;28;20132;-91
2022/11/02 01:38:23;;;;;;;2.33;0.60;;;11.40;99.90;;;;;;5053386;28;20127;-89
2022/11/02 01:40:48;;;;;;;3.28;0.50;;;11.40;99.90;;;;;;5070461;28;20040;-90
2022/11/02 01:43:26;;;;;;;2.60;0.40;;;11.80;99.90;;;;;;5071032;28;20521;-89
2022/11/02 01:45:59;;;;;;;2.33;0.50;;;11.30;99.90;;;;;;5051725;28;20403;-91
2022/11/02 01:48:30;;;;;;;2.30;0.32;;;11.30;99.90;;;;;;5072418;28;20055;-89
2022/11/02 01:50:58;;;;;;;2.92;0.40;;;11.20;99.90;;;;;;5069082;28;20086;-90
2022/11/02 01:53:24;;;;;;;5.30;0.60;;;11.20;99.90;;;;;;5078463;28;20044;-91
2022/11/02 01:55:51;;;;;;;2.70;0.57;;;11.40;99.90;;;;;;5072448;28;20043;-91
2022/11/02 01:58:17;;;;;;;0.82;0.40;;;11.20;99.90;;;;;;5093844;28;20044;-90
2022/11/02 02:00:43;;;;;;;3.75;0.50;;;11.40;99.90;;;;;;5079883;28;20044;-90
2022/11/02 02:03:11;;;;;;;6.93;0.50;;;12.00;99.90;;;;;;5073844;28;20533;-90
2022/11/02 02:05:47;;;;;;;5.53;0.60;;;12.00;99.90;;;;;;5076213;28;20047;-91
2022/11/02 02:08:16;;;;;;;6.20;0.80;;;11.30;99.90;;;;;;5074791;28;20457;-95
2022/11/02 02:10:42;;;;;;;3.90;0.63;;;11.30;99.90;;;;;;5071708;28;20074;-94
2022/11/02 02:13:08;;;;;;;4.82;1.05;;;12.20;99.90;;;;;;5071469;28;20040;-95
2022/11/02 02:15:54;;;;;;;2.55;0.40;;;11.60;99.90;;;;;;5087449;28;20052;-93
2022/11/02 02:18:26;;;;;;;0.55;0.10;;;11.20;99.90;;;;;;5072755;28;20048;-91
2022/11/02 02:21:04;;;;;;;1.97;0.17;;;11.30;99.90;;;;;;5068056;28;20044;-88
2022/11/02 02:24:18;;;;;;;5.43;0.50;;;11.00;99.90;;;;;;5087607;28;20519;-89
2022/11/02 02:27:22;;;;;;;5.05;1.10;;;11.00;99.90;;;;;;5069782;28;20048;-89
2022/11/02 02:30:09;;;;;;;5.03;0.70;;;11.10;99.90;;;;;;5010049;28;20119;-89
2022/11/02 02:32:46;;;;;;;2.85;0.45;;;11.10;99.90;;;;;;5067659;28;20538;-89
2022/11/02 02:35:24;;;;;;;5.03;0.65;;;11.10;99.90;;;;;;5066020;28;20048;-90
2022/11/02 02:37:57;;;;;;;8.63;1.48;;;11.10;99.90;;;;;;5066460;28;20083;-89
2022/11/02 02:40:39;;;;;;;3.83;0.90;;;11.10;99.90;;;;;;5088037;28;20044;-89
2022/11/02 02:43:20;;;;;;;2.10;0.60;;;11.20;99.90;;;;;;5068934;28;20048;-90
2022/11/02 02:46:21;;;;;;;7.03;1.35;;;11.10;99.90;;;;;;5066786;28;20553;-88
2022/11/02 02:48:48;;;;;;;8.63;0.80;;;11.00;99.90;;;;;;5037295;28;20082;-89
2022/11/02 02:51:20;;;;;;;4.90;1.00;;;11.60;99.90;;;;;;5066757;28;20560;-89
2022/11/02 02:53:49;;;;;;;3.72;0.95;;;11.00;99.90;;;;;;5069276;28;20042;-90
2022/11/02 02:56:18;;;;;;;9.90;1.15;;;11.00;99.90;;;;;;5075108;28;20043;-90
2022/11/02 02:59:12;;;;;;;9.52;1.63;;;11.00;99.90;;;;;;5060639;28;20051;-90
2022/11/02 03:01:41;;;;;;;5.85;1.30;;;11.10;99.90;;;;;;5082061;28;20085;-89
2022/11/02 03:04:11;;;;;;;7.07;1.65;;;11.10;99.90;;;;;;5062002;28;20040;-89
2022/11/02 03:06:37;;;;;;;7.88;1.45;;;11.10;99.90;;;;;;5063695;28;20040;-89
2022/11/02 03:09:18;;;;;;;6.65;1.10;;;11.20;99.90;;;;;;5071098;28;20482;-90
2022/11/02 03:12:12;;;;;;;8.77;2.50;;;11.20;99.90;;;;;;5066856;28;20062;-89
2022/11/02 03:15:00;;;;;;;4.80;1.02;;;11.20;99.90;;;;;;5063967;28;20459;-90
2022/11/02 03:17:44;;;;;;;4.95;1.20;;;11.30;99.90;;;;;;5084956;28;20044;-88
2022/11/02 03:20:22;;;;;;;3.95;0.60;;;11.30;99.90;;;;;;5066678;28;20044;-90
2022/11/02 03:23:08;;;;;;;4.70;1.33;;;11.20;99.90;;;;;;5070014;28;20048;-90
2022/11/02 03:25:49;;;;;;;6.00;0.70;;;11.30;99.90;;;;;;5066565;28;20055;-91
2022/11/02 03:28:44;;;;;;;7.85;0.63;;;11.20;99.90;;;;;;5068491;28;20479;-90
2022/11/02 03:31:29;;;;;;;4.78;0.50;;;11.10;99.90;;;;;;5069340;28;20107;-89
2022/11/02 03:34:03;;;;;;;1.42;0.50;;;11.00;99.90;;;;;;5066649;28;20539;-89
2022/11/02 03:37:30;;;;;;;2.65;0.60;;;11.00;99.90;;;;;;5069228;28;20055;-91
2022/11/02 03:40:21;;;;;;;8.60;0.90;;;11.00;99.90;;;;;;5047205;28;20047;-90
2022/11/02 03:42:48;;;;;;;4.38;0.55;;;11.00;99.90;;;;;;5066892;28;20090;-89
2022/11/02 03:45:20;;;;;;;2.50;0.60;;;11.00;99.90;;;;;;5068628;28;20509;-90
2022/11/02 03:47:56;;;;;;;7.27;0.80;;;11.00;99.90;;;;;;5068849;28;20136;-89
2022/11/02 03:50:23;;;;;;;6.68;0.82;;;11.00;99.90;;;;;;5049130;28;20040;-89
2022/11/02 03:53:00;;;;;;;3.92;0.52;;;10.90;99.90;;;;;;5069335;28;20044;-92
2022/11/02 03:55:34;;;;;;;4.63;0.60;;;10.90;99.90;;;;;;5082622;28;20380;-90
2022/11/02 03:57:59;;;;;;;5.70;0.98;;;11.70;99.90;;;;;;5068680;28;20047;-90
2022/11/02 04:00:29;;;;;;;8.60;0.93;;;10.90;99.90;;;;;;5051855;28;20036;-90
2022/11/02 04:02:58;;;;;;;9.43;1.30;;;10.90;99.90;;;;;;5066417;28;20047;-90
2022/11/02 04:05:29;;;;;;;3.13;0.77;;;10.90;99.90;;;;;;5069233;28;20048;-89
2022/11/02 04:14:36;;;;;;;6.70;0.85;;;11.00;99.90;;;;;;5054471;28;20130;-89
2022/11/02 04:16:11;;;;;;;6.05;1.13;;;10.90;99.90;;;;;;5051199;28;20055;-89
2022/11/02 04:21:20;;;;;;;6.25;0.88;;;10.80;99.90;;;;;;5068697;28;20599;-90
2022/11/02 04:26:30;;;;;;;4.82;1.67;;;10.80;99.90;;;;;;5069963;28;20074;-91
2022/11/02 04:28:56;;;;;;;7.68;0.90;;;10.80;99.90;;;;;;5035709;28;20036;-90
2022/11/02 04:31:22;;;;;;;11.63;1.13;;;10.80;99.90;;;;;;5038929;28;20044;-89
2022/11/02 04:33:47;;;;;;;3.88;0.88;;;10.90;99.90;;;;;;5068708;28;20042;-90
2022/11/02 04:36:13;;;;;;;13.27;1.50;;;10.80;99.90;;;;;;5055406;28;20465;-91
2022/11/02 04:38:39;;;;;;;5.78;0.70;;;12.00;99.90;;;;;;5053266;28;20043;-89
2022/11/02 04:43:50;;;;;;;6.68;0.80;;;11.50;99.90;;;;;;5075137;28;20054;-92
2022/11/02 04:46:16;;;;;;;13.60;1.20;;;11.00;99.90;;;;;;5073900;28;20059;-88
2022/11/02 04:48:42;;;;;;;17.42;1.48;;;10.90;99.90;;;;;;5060678;28;20588;-91
2022/11/02 04:51:07;;;;;;;9.35;2.13;;;11.00;99.90;;;;;;5056338;28;20048;-90
2022/11/02 04:53:34;;;;;;;6.35;0.98;;;11.00;99.90;;;;;;5041687;28;20128;-90
2022/11/02 04:55:59;;;;;;;3.88;0.70;;;11.10;99.90;;;;;;5055516;28;20059;-90
2022/11/02 04:58:25;;;;;;;6.03;0.95;;;11.00;99.90;;;;;;5072512;28;20036;-90
2022/11/02 05:00:51;;;;;;;7.10;1.13;;;10.90;99.90;;;;;;5073555;28;20131;-91
2022/11/02 05:03:16;;;;;;;10.20;1.02;;;10.80;99.90;;;;;;5072101;28;20046;-90
2022/11/02 05:05:43;;;;;;;9.15;1.55;;;10.80;99.90;;;;;;5074255;28;20063;-89
2022/11/02 05:08:09;;;;;;;7.63;0.80;;;10.80;99.90;;;;;;5054623;28;20086;-90
2022/11/02 05:10:35;;;;;;;6.95;0.70;;;10.80;99.90;;;;;;5075248;28;20102;-90
2022/11/02 05:13:00;;;;;;;2.45;0.95;;;10.80;99.90;;;;;;5074317;28;20043;-89
2022/11/02 05:15:26;;;;;;;7.15;0.85;;;10.80;99.90;;;;;;5076043;28;20050;-88
2022/11/02 05:17:52;;;;;;;5.88;0.90;;;10.80;99.90;;;;;;5027997;28;20368;-92
2022/11/02 05:20:18;;;;;;;6.65;0.95;;;11.30;99.90;;;;;;5022691;28;20173;-92
2022/11/02 05:22:44;;;;;;;7.82;0.95;;;10.80;99.90;;;;;;5059663;28;20055;-92
2022/11/02 05:25:10;;;;;;;8.82;1.13;;;10.80;99.90;;;;;;5087380;28;20099;-93
2022/11/02 05:27:36;;;;;;;7.32;1.20;;;10.80;99.90;;;;;;5041553;28;20114;-92
2022/11/02 05:30:04;;;;;;;6.55;1.10;;;10.80;99.90;;;;;;5086760;28;20047;-92
2022/11/02 05:32:30;;;;;;;7.80;0.75;;;10.80;99.90;;;;;;5085341;28;20103;-91
2022/11/02 05:34:55;;;;;;;15.10;1.50;;;10.80;99.90;;;;;;5054973;28;20082;-93
2022/11/02 05:37:21;;;;;;;5.43;0.75;;;10.90;99.90;;;;;;5069614;28;20113;-89
2022/11/02 05:39:46;;;;;;;12.10;1.08;;;10.80;99.90;;;;;;5056681;28;20105;-92
2022/11/02 05:42:12;;;;;;;13.65;2.28;;;10.70;99.90;;;;;;5070443;28;20044;-92
2022/11/02 05:44:38;;;;;;;8.77;1.40;;;10.70;99.90;;;;;;5074348;28;20048;-91
2022/11/02 05:47:04;;;;;;;8.07;1.35;;;10.90;99.90;;;;;;5069447;28;20185;-91
2022/11/02 05:49:29;;;;;;;8.82;1.23;;;10.70;99.90;;;;;;5054373;28;20036;-90
2022/11/02 05:51:55;;;;;;;10.63;1.25;;;10.70;99.90;;;;;;5070018;28;20048;-90
2022/11/02 05:54:21;;;;;;;6.82;1.25;;;10.70;99.90;;;;;;5068370;28;20040;-91
2022/11/02 05:56:46;;;;;;;10.70;1.63;;;11.60;99.90;;;;;;5071510;28;20052;-92
2022/11/02 05:59:12;;;;;;;14.27;1.67;;;10.70;99.90;;;;;;5067997;28;20043;-91
2022/11/02 06:01:38;;;;;;;9.90;1.85;;;10.70;99.90;;;;;;5073509;28;20043;-95
2022/11/02 06:04:04;;;;;;;7.97;1.88;;;10.70;99.90;;;;;;5054294;28;20102;-96
2022/11/02 06:06:30;;;;;;;12.90;2.38;;;10.70;99.90;;;;;;5091010;28;20054;-93
2022/11/02 06:08:56;;;;;;;10.45;1.67;;;10.70;99.90;;;;;;5055600;28;20094;-96
2022/11/02 06:11:22;;;;;;;10.80;1.20;;;10.80;99.90;;;;;;5073251;28;20048;-95
2022/11/02 06:13:49;;;;;;;8.05;1.70;;;11.10;99.90;;;;;;5071594;28;20040;-89
2022/11/02 06:16:16;;;;;;;7.10;1.55;;;10.80;99.90;;;;;;5052654;28;20063;-94
2022/11/02 06:18:43;;;;;;;9.88;1.40;;;10.80;99.90;;;;;;5055076;28;20044;-91
2022/11/02 06:21:09;;;;;;;11.60;1.75;;;11.90;99.90;;;;;;5069434;28;20048;-94
2022/11/02 06:23:35;;;;;;;8.23;1.55;;;11.90;99.90;;;;;;5073869;28;20048;-94
2022/11/02 06:26:02;;;;;;;11.05;1.23;;;10.80;99.90;;;;;;5080165;28;20048;-94
2022/11/02 06:28:28;;;;;;;8.93;1.98;;;10.80;99.90;;;;;;5081321;28;20039;-93
2022/11/02 06:30:55;;;;;;;11.13;2.65;;;10.80;99.90;;;;;;5079559;28;20036;-94
2022/11/02 06:33:20;;;;;;;11.85;2.58;;;10.90;99.90;;;;;;5073650;28;20067;-96
2022/11/02 06:35:48;;;;;;;10.77;1.45;;;11.70;99.90;;;;;;5074410;28;20495;-96
2022/11/02 06:38:15;;;;;;;7.40;1.02;;;10.90;99.90;;;;;;5070695;28;20124;-92
2022/11/02 06:40:41;;;;;;;10.90;1.90;;;10.90;99.90;;;;;;5072277;28;20126;-95
2022/11/02 06:43:08;;;;;;;9.90;1.60;;;10.90;99.90;;;;;;5068914;28;20043;-94
2022/11/02 06:45:33;;;;;;;10.77;1.70;;;11.10;99.90;;;;;;5058469;28;20056;-94
2022/11/02 06:47:59;;;;;;;5.57;1.33;;;10.90;99.90;;;;;;5061485;28;20067;-96
2022/11/02 06:50:25;;;;;;;14.88;1.23;;;10.90;99.90;;;;;;5075890;28;20052;-92
2022/11/02 06:52:52;;;;;;;10.02;1.45;;;11.20;99.90;;;;;;5075305;28;20044;-96
2022/11/02 06:55:18;;;;;;;8.40;1.23;;;11.00;99.90;;;;;;5064957;28;20051;-96
2022/11/02 06:57:44;;;;;;;7.28;0.90;;;11.00;99.90;;;;;;5074353;28;20444;-90
2022/11/02 07:00:12;;;;;;;6.45;0.95;;;11.00;99.90;;;;;;5055262;28;20044;-94
2022/11/02 07:02:39;;;;;;;8.45;1.10;;;11.00;99.90;;;;;;5068510;28;20087;-94
2022/11/02 07:05:06;;;;;;;11.43;1.27;;;11.00;99.90;;;;;;5096496;28;20024;-95
2022/11/02 07:07:32;;;;;;;7.22;1.00;;;11.00;99.90;;;;;;5075833;28;20036;-89
2022/11/02 07:10:00;;;;;;;8.98;1.33;;;11.00;99.90;;;;;;5076493;28;20032;-96
2022/11/02 07:12:25;;;;;;;9.15;1.65;;;11.00;99.90;;;;;;5060196;28;20025;-95
2022/11/02 07:14:51;;;;;;;7.32;1.65;;;11.80;99.90;;;;;;5078310;28;20066;-95
2022/11/02 07:17:17;;;;;;;13.32;2.45;;;11.10;99.90;;;;;;5075126;28;20043;-96
2022/11/02 07:19:42;;;;;;;13.57;2.17;;;11.20;99.90;;;;;;5077149;28;20036;-96
2022/11/02 07:22:08;;;;;;;12.15;1.73;;;11.10;99.90;;;;;;5055548;28;20044;-96
2022/11/02 07:24:35;;;;;;;13.55;1.48;;;11.20;99.90;;;;;;5073606;28;20119;-95
2022/11/02 07:27:01;;;;;;;11.10;1.35;;;11.30;99.90;;;;;;5064019;28;20115;-96
2022/11/02 07:29:26;;;;;;;11.32;1.55;;;11.20;99.90;;;;;;5074120;28;20068;-96
2022/11/02 07:31:52;;;;;;;17.02;1.73;;;11.20;99.90;;;;;;5020677;28;20048;-91
2022/11/02 07:34:18;;;;;;;14.55;1.50;;;11.20;99.90;;;;;;5052915;28;20051;-93
2022/11/02 07:36:44;;;;;;;6.22;0.90;;;11.20;99.90;;;;;;5051815;28;20048;-96
2022/11/02 07:39:17;;;;;;;9.68;1.13;;;11.20;99.90;;;;;;5034679;28;20048;-94
2022/11/02 07:41:43;;;;;;;8.90;1.13;;;11.10;99.90;;;;;;5053306;28;20079;-92
2022/11/02 07:44:09;;;;;;;11.40;1.25;;;11.10;99.90;;;;;;5046055;28;20056;-91
2022/11/02 07:46:34;;;;;;;5.90;1.10;;;11.10;99.90;;;;;;5039774;28;20118;-91
2022/11/02 07:49:00;;;;;;;11.45;1.40;;;11.00;99.90;;;;;;5037924;28;20037;-90
2022/11/02 07:51:25;;;;;;;7.60;1.00;;;11.00;99.90;;;;;;5019136;28;20577;-92
2022/11/02 07:53:51;;;;;;;8.15;1.13;;;11.70;99.90;;;;;;5038083;28;20041;-91
2022/11/02 07:56:17;;;;;;;7.38;1.13;;;11.90;99.90;;;;;;5041896;28;20045;-92
2022/11/02 07:58:42;;;;;;;4.50;1.33;;;10.90;99.90;;;;;;5056918;28;20045;-91
2022/11/02 08:01:08;;;;;;;8.43;1.13;;;11.20;99.90;;;;;;5016326;28;20687;-92
2022/11/02 08:03:34;;;;;;;4.57;0.65;;;11.50;99.90;;;;;;5039103;28;20139;-94
2022/11/02 08:06:01;;;;;;;5.43;0.95;;;10.90;99.90;;;;;;5018542;28;20045;-93
2022/11/02 08:08:27;;;;;;;5.32;0.98;;;10.90;99.90;;;;;;5031056;28;20112;-93
2022/11/02 08:10:53;;;;;;;8.70;0.90;;;11.80;99.90;;;;;;5039787;28;20048;-95
2022/11/02 08:13:21;;;;;;;6.50;0.88;;;11.10;99.90;;;;;;5072577;28;20152;-92
2022/11/02 08:15:51;;;;;;;8.07;1.15;;;11.10;99.90;;;;;;5056918;28;20395;-92
2022/11/02 08:18:19;;;;;;;12.30;1.35;;;11.20;99.90;;;;;;5053968;28;20200;-92
2022/11/02 08:20:47;;;;;;;10.60;1.10;;;11.30;99.90;;;;;;5058094;28;20649;-93
2022/11/02 08:23:15;;;;;;;8.50;1.25;;;11.50;99.90;;;;;;5070404;28;20048;-92
2022/11/02 08:25:41;;;;;;;6.70;1.40;;;11.60;99.90;;;;;;5057018;28;20080;-92
2022/11/02 08:28:13;;;;;;;9.85;1.30;;;11.70;99.90;;;;;;5072374;28;20047;-89
2022/11/02 08:30:38;;;;;;;10.98;1.08;;;11.90;99.90;;;;;;5055798;28;20063;-94
2022/11/02 08:33:07;;;;;;;6.97;1.63;;;11.90;99.90;;;;;;5072714;28;20507;-93
2022/11/02 08:35:33;;;;;;;7.53;1.10;;;12.10;99.90;;;;;;5070603;28;20047;-93
2022/11/02 08:37:59;;;;;;;8.02;1.42;;;12.20;99.90;;;;;;5074529;28;20044;-94
2022/11/02 08:40:25;;;;;;;7.95;1.40;;;12.30;99.90;;;;;;5069689;28;20453;-92
2022/11/02 08:43:03;;;;;;;13.05;1.48;;;12.40;99.90;;;;;;5073603;28;20040;-94
2022/11/02 08:45:30;;;;;;;9.75;1.55;;;12.60;99.90;;;;;;5072391;28;20048;-93
2022/11/02 08:47:56;;;;;;;6.18;1.00;;;12.70;99.90;;;;;;5054780;28;20043;-94
2022/11/02 08:50:24;;;;;;;12.45;1.40;;;12.80;99.90;;;;;;5072957;28;20048;-92
2022/11/02 08:52:50;;;;;;;5.90;0.70;;;12.80;99.90;;;;;;5069282;28;20051;-92
2022/11/02 08:55:16;;;;;;;9.68;1.27;;;12.90;99.90;;;;;;5057327;28;20221;-92
2022/11/02 08:58:11;;;;;;;16.55;1.55;;;12.90;99.90;;;;;;5069904;28;20521;-94
2022/11/02 09:00:36;;;;;;;10.85;1.30;;;13.70;99.90;;;;;;5038453;28;20052;-94
2022/11/02 09:03:09;;;;;;;8.60;1.42;;;13.00;99.90;;;;;;5072320;28;20063;-92
2022/11/02 09:05:41;;;;;;;13.52;1.35;;;13.00;99.90;;;;;;5070607;28;20515;-93
2022/11/02 09:08:11;;;;;;;6.85;1.10;;;13.40;99.90;;;;;;5073431;28;20492;-95
2022/11/02 09:10:37;;;;;;;11.20;2.03;;;12.90;99.90;;;;;;5052432;28;20044;-93
2022/11/02 09:13:05;;;;;;;10.27;1.77;;;12.90;99.90;;;;;;5055665;28;20039;-92
2022/11/02 09:15:34;;;;;;;7.47;2.03;;;12.90;99.90;;;;;;5069980;28;20102;-91
2022/11/02 09:18:00;;;;;;;9.48;1.00;;;12.90;99.90;;;;;;5072404;28;20047;-92
2022/11/02 09:20:25;;;;;;;9.75;1.40;;;13.00;99.90;;;;;;5074007;28;20036;-93
2022/11/02 09:22:51;;;;;;;10.85;1.10;;;13.10;99.90;;;;;;5074663;28;20051;-91
2022/11/02 09:25:17;;;;;;;10.93;1.73;;;13.50;99.90;;;;;;5077115;28;20047;-93
2022/11/02 09:27:43;;;;;;;10.43;1.20;;;13.20;99.90;;;;;;5073219;28;20040;-92
2022/11/02 09:30:10;;;;;;;7.15;1.45;;;13.10;99.90;;;;;;5079123;28;20051;-92
2022/11/02 09:32:37;;;;;;;8.57;1.33;;;13.10;99.90;;;;;;5068229;28;20179;-94
2022/11/02 09:35:06;;;;;;;11.57;1.38;;;13.20;99.90;;;;;;5096021;28;20058;-93
2022/11/02 09:37:32;;;;;;;11.95;1.60;;;13.20;99.90;;;;;;5094637;28;20016;-93
2022/11/02 09:40:05;;;;;;;18.05;2.20;;;13.20;99.90;;;;;;5091182;28;20080;-93
2022/11/02 09:42:52;;;;;;;8.07;1.10;;;13.30;99.90;;;;;;5076554;28;20048;-93
2022/11/02 09:45:21;;;;;;;8.52;1.25;;;13.30;99.90;;;;;;5070262;28;20043;-93
2022/11/02 09:47:54;;;;;;;7.28;1.20;;;13.50;99.90;;;;;;5059354;28;20043;-92
2022/11/02 09:50:23;;;;;;;12.30;1.85;;;13.50;99.90;;;;;;5058693;28;20539;-92
2022/11/02 09:53:01;;;;;;;14.48;1.63;;;13.40;99.90;;;;;;5073253;28;20126;-92
2022/11/02 09:55:33;;;;;;;10.82;1.10;;;13.90;99.90;;;;;;5075856;28;20403;-93
2022/11/02 09:58:13;;;;;;;14.75;1.60;;;13.40;99.90;;;;;;5071058;28;20051;-93
2022/11/02 10:00:40;;;;;;;15.13;2.53;;;13.30;99.90;;;;;;5073598;28;20104;-92
2022/11/02 10:03:32;;;;;;;10.05;1.65;;;13.30;99.90;;;;;;5069856;28;20044;-92
2022/11/02 10:06:09;;;;;;;12.48;1.52;;;13.10;99.90;;;;;;5069935;28;20016;-92
2022/11/02 10:08:44;;;;;;;13.35;2.03;;;13.30;99.90;;;;;;5054605;28;20113;-92
2022/11/02 10:11:31;;;;;;;12.32;2.03;;;13.30;99.90;;;;;;5068938;28;20044;-92
2022/11/02 10:14:41;;;;;;;16.50;1.77;;;13.20;99.90;;;;;;5055124;28;20044;-92
2022/11/02 10:17:13;;;;;;;11.60;1.38;;;13.20;99.90;;;;;;5011857;28;20041;-91
2022/11/02 10:19:40;;;;;;;11.13;1.88;;;13.20;99.90;;;;;;5009046;28;20060;-92
2022/11/02 10:22:11;;;;;;;8.07;1.40;;;13.30;99.90;;;;;;5041792;28;20056;-94
2022/11/02 10:24:43;;;;;;;14.55;1.17;;;13.40;99.90;;;;;;5069052;28;20043;-91
2022/11/02 10:27:28;;;;;;;14.50;1.77;;;13.60;99.90;;;;;;5071134;28;20035;-92
2022/11/02 10:30:13;;;;;;;7.05;1.75;;;13.70;99.90;;;;;;5070880;28;20044;-92
2022/11/02 10:32:41;;;;;;;8.38;1.45;;;13.70;99.90;;;;;;5084526;28;20051;-93
2022/11/02 10:35:38;;;;;;;15.88;1.60;;;13.70;99.90;;;;;;5055638;28;20507;-93
2022/11/02 10:38:24;;;;;;;12.43;0.85;;;13.70;99.90;;;;;;5069545;28;20048;-91
2022/11/02 10:41:11;;;;;;;11.55;1.30;;;13.60;99.90;;;;;;5069508;28;20177;-92
2022/11/02 10:44:04;;;;;;;23.65;3.53;;;13.30;99.90;;;;;;5071683;28;20154;-92
2022/11/02 10:46:53;;;;;;;12.68;1.52;;;13.20;99.90;;;;;;5069512;28;20047;-96
2022/11/02 10:49:28;;;;;;;7.53;1.17;;;13.00;99.90;;;;;;5069967;28;20066;-94
2022/11/02 10:51:53;;;;;;;9.15;1.00;;;12.90;99.90;;;;;;5072701;28;20079;-93
2022/11/02 10:54:19;;;;;;;10.27;1.33;;;12.70;99.90;;;;;;5053400;28;20043;-94
2022/11/02 10:56:49;;;;;;;13.30;2.13;;;12.70;99.90;;;;;;5056210;28;20040;-92
2022/11/02 10:59:22;;;;;;;14.15;1.65;;;12.60;99.90;;;;;;5037063;28;20050;-92
2022/11/02 11:02:12;;;;;;;7.43;1.20;;;12.60;99.90;;;;;;5054362;28;20134;-91
2022/11/02 11:04:38;;;;;;;16.17;1.20;;;12.50;99.90;;;;;;5062824;28;20106;-90
2022/11/02 11:07:10;;;;;;;8.90;1.45;;;12.50;99.90;;;;;;5050952;28;20051;-91
2022/11/02 11:09:55;;;;;;;16.02;1.38;;;13.30;99.90;;;;;;5070569;28;20048;-91
2022/11/02 11:12:36;;;;;;;17.42;3.45;;;12.70;99.90;;;;;;5067815;28;20052;-92
2022/11/02 11:15:05;;;;;;;15.02;2.45;;;13.00;99.90;;;;;;5052576;28;20101;-87
2022/11/02 11:17:38;;;;;;;7.82;1.23;;;13.30;99.90;;;;;;5037910;28;20487;-91
2022/11/02 11:20:23;;;;;;;11.23;2.22;;;13.60;99.90;;;;;;5069605;28;20052;-91
2022/11/02 11:23:14;;;;;;;11.02;2.03;;;13.90;99.90;;;;;;5070295;28;20495;-93
2022/11/02 11:25:40;;;;;;;9.60;1.13;;;14.10;99.90;;;;;;5069177;28;20090;-92
2022/11/02 11:28:26;;;;;;;14.35;0.95;;;14.30;99.90;;;;;;5053714;28;20037;-94
2022/11/02 11:31:16;;;;;;;14.63;1.42;;;14.40;99.90;;;;;;5069263;28;20045;-91
2022/11/02 11:33:56;;;;;;;11.38;1.63;;;14.30;99.90;;;;;;5041152;28;20052;-93
2022/11/02 11:36:31;;;;;;;11.40;1.30;;;14.50;99.90;;;;;;5053910;28;20067;-92
2022/11/02 11:39:29;;;;;;;13.90;1.45;;;14.40;99.90;;;;;;5073599;28;20402;-91
2022/11/02 11:41:55;;;;;;;12.63;1.40;;;14.30;99.90;;;;;;5071689;28;20044;-91
2022/11/02 11:44:22;;;;;;;14.07;1.20;;;14.40;99.90;;;;;;5056992;28;20055;-92
2022/11/02 11:46:51;;;;;;;13.93;1.73;;;14.60;99.90;;;;;;5056071;28;20050;-94
2022/11/02 11:49:30;;;;;;;10.30;1.23;;;14.80;99.90;;;;;;5073209;28;20043;-90
2022/11/02 11:51:58;;;;;;;11.15;1.92;;;15.00;99.90;;;;;;5056757;28;20044;-94
2022/11/02 11:54:31;;;;;;;8.50;1.60;;;15.10;99.90;;;;;;5054516;28;20052;-92
2022/11/02 11:57:15;;;;;;;7.75;1.25;;;15.20;99.90;;;;;;5056783;28;20040;-91
2022/11/02 11:59:50;;;;;;;10.68;1.30;;;15.40;99.90;;;;;;5054603;28;20066;-91
2022/11/02 12:02:30;;;;;;;9.13;1.20;;;15.30;99.90;;;;;;5072152;28;20503;-91
2022/11/02 12:05:19;;;;;;;6.05;0.90;;;15.30;99.90;;;;;;5072760;28;20347;-93
2022/11/02 12:08:04;;;;;;;8.05;0.98;;;15.30;99.90;;;;;;5050931;28;20446;-92
2022/11/02 12:10:36;;;;;;;10.43;1.30;;;15.20;99.90;;;;;;5052642;28;20048;-92
2022/11/02 12:13:26;;;;;;;3.83;0.95;;;15.20;99.90;;;;;;5054268;28;20047;-91
2022/11/02 12:16:05;;;;;;;6.18;0.88;;;15.20;99.90;;;;;;5051521;28;20139;-91
2022/11/02 12:19:05;;;;;;;6.57;1.17;;;15.20;99.90;;;;;;5054195;28;20055;-94
2022/11/02 12:21:46;;;;;;;7.97;1.10;;;15.10;99.90;;;;;;5052953;28;20053;-92
2022/11/02 12:24:48;;;;;;;7.55;1.27;;;15.10;99.90;;;;;;5051491;28;20048;-92
2022/11/02 12:27:31;;;;;;;12.43;0.90;;;15.10;99.90;;;;;;5052578;28;20106;-91
2022/11/02 12:30:22;;;;;;;8.07;0.98;;;14.90;99.90;;;;;;5051364;28;20036;-92
2022/11/02 12:32:48;;;;;;;6.88;1.02;;;14.90;99.90;;;;;;5050735;28;20041;-91
2022/11/02 12:35:42;;;;;;;6.53;1.45;;;14.90;99.90;;;;;;5052163;28;20037;-90
2022/11/02 12:38:08;;;;;;;11.60;1.35;;;14.90;99.90;;;;;;5050201;28;20041;-91
2022/11/02 12:40:52;;;;;;;14.75;1.52;;;14.90;99.90;;;;;;5052066;28;20040;-89
2022/11/02 12:43:47;;;;;;;5.10;0.93;;;14.80;99.90;;;;;;5050528;28;20032;-89
2022/11/02 12:46:45;;;;;;;7.60;1.13;;;14.80;99.90;;;;;;5050792;28;20052;-89
2022/11/02 12:49:29;;;;;;;6.90;1.13;;;14.90;99.90;;;;;;5054458;28;20064;-87
2022/11/02 12:52:13;;;;;;;7.80;1.08;;;15.10;99.90;;;;;;5069825;28;20064;-89
2022/11/02 12:54:47;;;;;;;6.30;1.23;;;15.20;99.90;;;;;;5052608;28;20484;-91
2022/11/02 12:57:22;;;;;;;13.82;1.70;;;15.30;99.90;;;;;;5071626;28;20072;-90
2022/11/02 12:59:57;;;;;;;5.22;1.65;;;15.20;99.90;;;;;;5034491;28;20044;-90
2022/11/02 13:02:25;;;;;;;10.00;1.27;;;15.10;99.90;;;;;;5053564;28;20040;-93
2022/11/02 13:05:01;;;;;;;12.55;2.10;;;14.90;99.90;;;;;;5081032;28;20040;-93
2022/11/02 13:07:37;;;;;;;13.48;2.40;;;14.80;99.90;;;;;;5073177;28;20039;-92
2022/11/02 13:10:14;;;;;;;5.38;1.10;;;14.70;99.90;;;;;;5093739;28;20051;-96
2022/11/02 13:12:42;;;;;;;7.53;0.95;;;14.70;99.90;;;;;;5093853;28;20039;-92
2022/11/02 13:15:14;;;;;;;7.07;1.02;;;14.70;99.90;;;;;;5095318;28;20421;-91
2022/11/02 13:17:59;;;;;;;10.68;2.08;;;14.80;99.90;;;;;;5091403;28;20136;-91
2022/11/02 13:20:46;;;;;;;14.88;1.42;;;14.80;99.90;;;;;;5062205;28;20071;-91